createdAt,value
2022-11-24T00:02:16.250Z,39.12
2022-11-24T00:04:42.919Z,39.16
2022-11-24T00:07:09.580Z,39.62
2022-11-24T00:09:36.249Z,39.50
2022-11-24T00:12:02.884Z,38.99
2022-11-24T00:14:29.495Z,39.07
2022-11-24T00:16:56.166Z,39.04
2022-11-24T00:19:22.829Z,39.48
2022-11-24T00:21:49.454Z,38.95
2022-11-24T00:24:16.130Z,39.47
2022-11-24T00:26:42.744Z,39.54
2022-11-24T00:29:09.714Z,39.09
2022-11-24T00:31:40.554Z,39.36
2022-11-24T00:34:11.035Z,39.58
2022-11-24T00:36:37.703Z,39.00
2022-11-24T00:39:06.024Z,39.11
2022-11-24T00:41:32.639Z,39.33
2022-11-24T00:43:59.374Z,39.61
2022-11-24T00:46:26.189Z,39.43
2022-11-24T00:48:52.927Z,39.52
2022-11-24T00:51:20.263Z,39.54
2022-11-24T00:53:46.886Z,39.63
2022-11-24T00:56:13.496Z,39.52
2022-11-24T00:58:40.101Z,39.53
2022-11-24T01:01:17.396Z,39.60
2022-11-24T01:03:44.079Z,39.49
2022-11-24T01:06:21.617Z,39.07
2022-11-24T01:08:48.221Z,39.16
2022-11-24T01:11:21.383Z,39.13
2022-11-24T01:13:51.491Z,39.57
2022-11-24T01:16:20.972Z,39.36
2022-11-24T01:18:47.670Z,39.43
2022-11-24T01:21:14.474Z,39.36
2022-11-24T01:23:41.100Z,39.62
2022-11-24T01:26:08.519Z,39.30
2022-11-24T01:28:35.136Z,39.53
2022-11-24T01:31:02.961Z,39.55
2022-11-24T01:33:29.691Z,39.67
2022-11-24T01:35:57.562Z,39.29
2022-11-24T01:38:24.656Z,39.57
2022-11-24T01:41:20.314Z,39.49
2022-11-24T01:43:47.002Z,39.05
2022-11-24T01:46:26.146Z,39.70
2022-11-24T01:48:54.567Z,39.10
2022-11-24T01:51:23.887Z,39.14
2022-11-24T01:53:53.472Z,39.63
2022-11-24T01:56:20.090Z,39.39
2022-11-24T01:58:46.699Z,39.22
2022-11-24T02:01:13.953Z,39.29
2022-11-24T02:03:40.660Z,39.52
2022-11-24T02:06:17.811Z,39.11
2022-11-24T02:08:54.713Z,39.27
2022-11-24T02:11:21.339Z,39.11
2022-11-24T02:13:47.966Z,39.33
2022-11-24T02:16:14.653Z,39.64
2022-11-24T02:18:41.779Z,39.24
2022-11-24T02:21:08.377Z,39.89
2022-11-24T02:23:55.354Z,39.68
2022-11-24T02:26:39.818Z,39.35
2022-11-24T02:29:06.438Z,39.60
2022-11-24T02:31:33.093Z,39.31
2022-11-24T02:33:59.758Z,39.61
2022-11-24T02:36:26.427Z,39.40
2022-11-24T02:38:53.034Z,39.39
2022-11-24T02:41:20.609Z,39.63
2022-11-24T02:43:55.113Z,39.53
2022-11-24T02:46:21.917Z,39.80
2022-11-24T02:48:48.593Z,39.30
2022-11-24T02:51:15.231Z,39.42
2022-11-24T02:53:41.856Z,39.39
2022-11-24T02:56:08.475Z,40.07
2022-11-24T02:58:35.108Z,39.48
2022-11-24T03:01:01.732Z,39.50
2022-11-24T03:03:28.380Z,39.41
2022-11-24T03:05:55.020Z,39.26
2022-11-24T03:08:21.741Z,39.99
2022-11-24T03:10:48.390Z,39.93
2022-11-24T03:13:14.986Z,39.52
2022-11-24T03:15:41.665Z,39.36
2022-11-24T03:18:08.345Z,39.47
2022-11-24T03:20:34.972Z,39.26
2022-11-24T03:23:01.638Z,39.81
2022-11-24T03:25:28.275Z,39.34
2022-11-24T03:27:56.313Z,39.46
2022-11-24T03:30:22.946Z,39.92
2022-11-24T03:32:51.612Z,39.85
2022-11-24T03:35:18.260Z,39.46
2022-11-24T03:37:44.892Z,39.93
2022-11-24T03:40:11.564Z,39.67
2022-11-24T03:42:38.161Z,39.48
2022-11-24T03:45:30.033Z,39.43
2022-11-24T03:47:51.793Z,39.91
2022-11-24T03:50:18.421Z,39.45
2022-11-24T03:52:45.045Z,39.51
2022-11-24T03:55:11.673Z,39.50
2022-11-24T03:57:38.292Z,39.48
2022-11-24T04:00:05.134Z,39.80
2022-11-24T04:02:31.839Z,39.75
2022-11-24T04:04:58.483Z,39.85
2022-11-24T04:07:25.137Z,39.96
2022-11-24T04:09:51.749Z,39.33
2022-11-24T04:12:18.378Z,39.51
2022-11-24T04:14:44.983Z,39.65
2022-11-24T04:17:11.616Z,39.90
2022-11-24T04:19:38.245Z,39.43
2022-11-24T04:22:04.849Z,39.96
2022-11-24T04:24:31.754Z,40.11
2022-11-24T04:26:58.497Z,39.42
2022-11-24T04:29:25.112Z,39.54
2022-11-24T04:31:51.773Z,39.55
2022-11-24T04:34:18.421Z,40.04
2022-11-24T04:36:45.062Z,39.83
2022-11-24T04:39:25.613Z,39.70
2022-11-24T04:41:54.580Z,40.05
2022-11-24T04:44:21.188Z,40.08
2022-11-24T04:46:47.876Z,40.04
2022-11-24T04:49:14.526Z,39.60
2022-11-24T04:51:42.166Z,39.71
2022-11-24T04:54:10.169Z,40.18
2022-11-24T04:56:36.785Z,39.80
2022-11-24T04:59:08.025Z,40.12
2022-11-24T05:01:35.194Z,40.05
2022-11-24T05:04:01.898Z,39.78
2022-11-24T05:06:28.525Z,39.54
2022-11-24T05:08:55.133Z,39.60
2022-11-24T05:11:21.767Z,39.92
2022-11-24T05:13:48.398Z,39.80
2022-11-24T05:16:15.128Z,39.78
2022-11-24T05:18:41.789Z,39.40
2022-11-24T05:21:08.406Z,40.01
2022-11-24T05:23:35.010Z,39.32
2022-11-24T05:26:01.734Z,39.76
2022-11-24T05:28:28.476Z,39.61
2022-11-24T05:30:58.224Z,39.41
2022-11-24T05:33:24.851Z,39.54
2022-11-24T05:35:51.467Z,39.50
2022-11-24T05:38:18.221Z,39.68
2022-11-24T05:40:44.830Z,40.59
2022-11-24T05:43:17.231Z,40.34
2022-11-24T05:45:43.909Z,39.11
2022-11-24T05:48:12.191Z,37.91
2022-11-24T05:50:38.899Z,38.33
2022-11-24T05:53:09.037Z,38.95
2022-11-24T05:55:35.663Z,39.46
2022-11-24T05:58:03.905Z,39.90
2022-11-24T06:00:30.760Z,39.67
2022-11-24T06:02:57.725Z,39.62
2022-11-24T06:05:24.753Z,39.34
2022-11-24T06:07:51.517Z,39.69
2022-11-24T06:10:18.537Z,39.48
2022-11-24T06:12:45.157Z,40.25
2022-11-24T06:15:11.974Z,39.94
2022-11-24T06:17:38.689Z,40.82
2022-11-24T06:20:06.248Z,40.54
2022-11-24T06:22:32.844Z,41.04
2022-11-24T06:24:59.457Z,40.76
2022-11-24T06:27:26.098Z,41.68
2022-11-24T06:29:52.711Z,41.11
2022-11-24T06:32:19.306Z,41.60
2022-11-24T06:34:45.936Z,41.57
2022-11-24T06:37:13.139Z,42.00
2022-11-24T06:39:39.756Z,41.50
2022-11-24T06:42:06.364Z,41.49
2022-11-24T06:44:33.226Z,42.02
2022-11-24T06:46:59.938Z,42.11
2022-11-24T06:49:26.550Z,41.77
2022-11-24T06:51:54.529Z,41.76
2022-11-24T06:54:21.131Z,41.71
2022-11-24T06:56:47.737Z,41.23
2022-11-24T06:59:18.814Z,41.26
2022-11-24T07:01:45.546Z,41.61
2022-11-24T07:04:12.170Z,41.17
2022-11-24T07:06:38.769Z,41.59
2022-11-24T07:09:05.365Z,41.43
2022-11-24T07:11:31.981Z,41.10
2022-11-24T07:14:00.263Z,40.88
2022-11-24T07:16:27.188Z,41.01
2022-11-24T07:18:53.925Z,41.32
2022-11-24T07:21:21.193Z,40.74
2022-11-24T07:23:51.206Z,41.07
2022-11-24T07:26:17.827Z,41.26
2022-11-24T07:28:44.485Z,41.09
2022-11-24T07:31:12.667Z,41.17
2022-11-24T07:33:39.346Z,40.58
2022-11-24T07:36:06.328Z,40.45
2022-11-24T07:38:32.926Z,40.59
2022-11-24T07:41:03.406Z,40.72
2022-11-24T07:43:30.789Z,40.91
2022-11-24T07:45:57.433Z,40.69
2022-11-24T07:48:24.069Z,40.28
2022-11-24T07:50:55.488Z,40.42
2022-11-24T07:53:22.801Z,40.69
2022-11-24T07:55:56.335Z,40.81
2022-11-24T07:58:23.010Z,40.51
2022-11-24T08:00:49.646Z,40.36
2022-11-24T08:03:16.301Z,40.64
2022-11-24T08:06:07.937Z,40.50
2022-11-24T08:08:30.226Z,40.71
2022-11-24T08:10:56.858Z,40.04
2022-11-24T08:13:23.473Z,40.65
2022-11-24T08:15:50.215Z,40.13
2022-11-24T08:18:16.817Z,40.17
2022-11-24T08:20:43.411Z,40.04
2022-11-24T08:23:10.041Z,40.26
2022-11-24T08:25:36.651Z,40.18
2022-11-24T08:28:03.731Z,40.25
2022-11-24T08:30:30.378Z,40.06
2022-11-24T08:32:59.317Z,40.33
2022-11-24T08:35:25.931Z,40.26
2022-11-24T08:37:52.541Z,40.34
2022-11-24T08:40:19.139Z,39.94
2022-11-24T08:42:45.746Z,39.97
2022-11-24T08:45:20.425Z,40.63
2022-11-24T08:47:52.159Z,40.34
2022-11-24T08:50:18.794Z,40.62
2022-11-24T08:52:45.425Z,40.56
2022-11-24T08:55:12.042Z,40.23
2022-11-24T08:57:38.667Z,40.19
2022-11-24T09:00:05.809Z,40.37
2022-11-24T09:02:32.425Z,40.10
2022-11-24T09:04:59.060Z,40.48
2022-11-24T09:07:25.712Z,40.31
2022-11-24T09:09:52.367Z,39.73
2022-11-24T09:12:18.982Z,40.03
2022-11-24T09:14:45.613Z,40.28
2022-11-24T09:17:12.375Z,40.15
2022-11-24T09:19:39.035Z,39.71
2022-11-24T09:22:05.639Z,40.39
2022-11-24T09:24:32.268Z,39.79
2022-11-24T09:26:58.885Z,39.88
2022-11-24T09:29:25.508Z,39.84
2022-11-24T09:31:52.141Z,39.80
2022-11-24T09:34:18.751Z,39.91
2022-11-24T09:36:45.342Z,39.83
2022-11-24T09:39:11.965Z,40.15
2022-11-24T09:41:55.394Z,40.23
2022-11-24T09:44:50.263Z,40.14
2022-11-24T09:47:41.664Z,40.24
2022-11-24T09:50:21.409Z,40.31
2022-11-24T09:53:02.275Z,40.17
2022-11-24T09:55:34.246Z,39.84
2022-11-24T09:58:19.608Z,40.05
2022-11-24T10:00:47.225Z,40.00
2022-11-24T10:03:26.810Z,39.62
2022-11-24T10:05:53.411Z,39.68
2022-11-24T10:08:38.035Z,40.16
2022-11-24T10:11:16.082Z,40.03
2022-11-24T10:14:18.059Z,39.68
2022-11-24T10:16:57.273Z,39.57
2022-11-24T10:19:46.019Z,39.93
2022-11-24T10:22:24.738Z,39.75
2022-11-24T10:25:20.731Z,39.61
2022-11-24T10:27:49.461Z,39.61
2022-11-24T10:30:18.950Z,40.21
2022-11-24T10:33:07.527Z,39.81
2022-11-24T10:35:40.002Z,40.27
2022-11-24T10:38:21.684Z,39.99
2022-11-24T10:40:58.629Z,40.05
2022-11-24T10:43:26.939Z,40.88
2022-11-24T10:45:54.502Z,39.85
2022-11-24T10:48:25.410Z,40.26
2022-11-24T10:51:01.049Z,39.85
2022-11-24T10:53:29.541Z,39.98
2022-11-24T10:55:55.998Z,39.95
2022-11-24T10:58:37.639Z,40.21
2022-11-24T11:01:13.898Z,40.50
2022-11-24T11:03:54.129Z,40.09
2022-11-24T11:06:25.073Z,39.96
2022-11-24T11:09:06.991Z,39.87
2022-11-24T11:11:34.594Z,39.55
2022-11-24T11:14:05.293Z,39.93
2022-11-24T11:16:39.176Z,39.56
2022-11-24T11:19:47.968Z,39.48
2022-11-24T11:22:12.896Z,39.32
2022-11-24T11:24:40.184Z,39.52
2022-11-24T11:27:20.779Z,39.17
2022-11-24T11:35:20.996Z,39.63
2022-11-24T11:37:48.595Z,39.50
2022-11-24T11:40:20.053Z,39.95
2022-11-24T11:43:07.513Z,39.70
2022-11-24T11:45:35.537Z,39.57
2022-11-24T11:48:02.063Z,39.42
2022-11-24T11:51:06.707Z,39.81
2022-11-24T11:53:34.028Z,39.36
2022-11-24T11:56:15.807Z,39.21
2022-11-24T11:59:04.030Z,38.89
2022-11-24T12:01:58.401Z,38.92
2022-11-24T12:04:34.644Z,38.82
2022-11-24T12:07:16.561Z,38.76
2022-11-24T12:09:49.782Z,38.17
2022-11-24T12:12:34.505Z,38.04
2022-11-24T12:15:34.224Z,38.21
2022-11-24T12:18:48.682Z,37.95
2022-11-24T12:21:11.979Z,38.27
2022-11-24T12:24:10.912Z,38.23
2022-11-24T12:26:53.112Z,38.13
2022-11-24T12:29:45.911Z,37.84
2022-11-24T12:32:22.907Z,37.88
2022-11-24T12:34:58.784Z,37.97
2022-11-24T12:37:34.508Z,37.87
2022-11-24T12:40:15.241Z,38.00
2022-11-24T12:43:00.411Z,38.12
2022-11-24T12:45:42.195Z,38.19
2022-11-24T12:48:34.961Z,38.49
2022-11-24T12:51:01.594Z,38.52
2022-11-24T12:53:32.506Z,38.21
2022-11-24T12:56:04.836Z,38.08
2022-11-24T12:58:56.843Z,37.93
2022-11-24T13:01:30.718Z,38.30
2022-11-24T13:03:57.270Z,37.88
2022-11-24T13:06:51.571Z,37.78
2022-11-24T13:09:18.327Z,38.10
2022-11-24T13:11:57.898Z,38.21
2022-11-24T13:14:32.262Z,38.75
2022-11-24T13:19:50.856Z,38.59
2022-11-24T13:22:24.729Z,38.33
2022-11-24T13:25:12.608Z,38.00
2022-11-24T13:27:40.389Z,38.00
2022-11-24T13:30:33.197Z,38.53
2022-11-24T13:33:16.175Z,38.42
2022-11-24T13:36:01.586Z,38.65
2022-11-24T13:38:46.275Z,39.14
2022-11-24T13:41:31.780Z,39.42
2022-11-24T13:44:13.365Z,39.31
2022-11-24T13:47:06.159Z,39.92
2022-11-24T13:49:43.815Z,39.96
2022-11-24T13:52:36.910Z,40.92
2022-11-24T13:55:13.041Z,39.70
2022-11-24T13:57:46.207Z,39.31
2022-11-24T14:00:24.121Z,39.48
2022-11-24T14:02:51.789Z,41.78
2022-11-24T14:05:19.763Z,39.53
2022-11-24T14:07:47.594Z,41.76
2022-11-24T14:10:18.796Z,40.95
2022-11-24T14:12:45.413Z,39.75
2022-11-24T14:15:29.850Z,39.37
2022-11-24T14:17:56.477Z,38.65
2022-11-24T14:20:24.579Z,38.96
2022-11-24T14:22:51.191Z,38.86
2022-11-24T14:25:29.936Z,38.54
2022-11-24T16:27:47.117Z,42.19
2022-11-24T16:30:13.767Z,41.36
2022-11-24T16:32:40.369Z,40.33
2022-11-24T16:35:07.164Z,39.52
2022-11-24T16:37:33.786Z,39.02
2022-11-24T16:40:00.425Z,38.40
2022-11-24T16:42:27.050Z,37.83
2022-11-24T16:44:53.660Z,37.83
2022-11-24T16:47:20.260Z,37.42
2022-11-24T16:49:47.076Z,37.50
2022-11-24T16:52:14.792Z,37.23
2022-11-24T16:54:41.404Z,36.67
2022-11-24T16:57:13.255Z,37.28
2022-11-24T16:59:41.335Z,37.39
2022-11-24T17:02:10.370Z,37.56
2022-11-24T17:04:37.206Z,37.68
2022-11-24T17:07:03.880Z,38.13
2022-11-24T17:09:30.523Z,38.77
2022-11-24T17:11:57.132Z,38.50
2022-11-24T17:14:23.762Z,38.76
2022-11-24T17:16:50.445Z,37.98
2022-11-24T17:19:17.125Z,39.02
2022-11-24T17:21:43.753Z,39.50
2022-11-24T17:24:10.398Z,39.19
2022-11-24T17:26:37.029Z,39.35
2022-11-24T17:29:03.651Z,39.17
2022-11-24T17:31:31.272Z,39.60
2022-11-24T17:33:58.286Z,39.66
2022-11-24T17:36:24.943Z,40.27
2022-11-24T17:38:51.574Z,39.63
2022-11-24T17:41:18.636Z,39.59
2022-11-24T17:43:51.917Z,40.00
2022-11-24T17:46:18.740Z,39.86
2022-11-24T17:48:45.544Z,40.15
2022-11-24T17:51:13.308Z,39.58
2022-11-24T17:53:40.805Z,38.96
2022-11-24T17:56:07.821Z,40.24
2022-11-24T17:58:39.755Z,39.45
2022-11-24T18:01:11.764Z,39.14
2022-11-24T18:03:39.389Z,39.52
2022-11-24T18:06:09.777Z,39.75
2022-11-24T18:08:36.738Z,39.91
2022-11-24T18:11:07.305Z,40.31
2022-11-24T18:13:55.604Z,40.01
2022-11-24T18:16:20.568Z,39.59
2022-11-24T18:18:50.329Z,40.76
2022-11-24T18:21:17.635Z,39.89
2022-11-24T18:23:44.256Z,39.93
2022-11-24T18:26:12.373Z,40.11
2022-11-24T18:28:38.985Z,39.68
2022-11-24T18:31:07.015Z,39.73
2022-11-24T18:33:37.349Z,40.52
2022-11-24T18:36:04.056Z,39.71
2022-11-24T18:38:30.788Z,41.04
2022-11-24T18:40:58.522Z,41.25
2022-11-24T18:43:25.823Z,41.30
2022-11-24T18:45:52.506Z,41.75
2022-11-24T18:48:19.189Z,41.74
2022-11-24T18:50:52.869Z,42.42
2022-11-24T18:53:20.236Z,42.41
2022-11-24T18:55:59.449Z,42.63
2022-11-24T18:58:26.406Z,41.89
2022-11-24T19:00:54.370Z,43.74
2022-11-24T19:03:21.053Z,42.96
2022-11-24T19:05:47.684Z,43.40
2022-11-24T19:08:14.303Z,45.79
2022-11-24T19:10:41.498Z,43.12
2022-11-24T19:13:08.117Z,43.96
2022-11-24T19:15:34.886Z,44.06
2022-11-24T19:18:01.685Z,44.48
2022-11-24T19:20:28.398Z,44.76
2022-11-24T19:22:55.013Z,45.25
2022-11-24T19:25:21.636Z,43.70
2022-11-24T19:27:48.298Z,43.71
2022-11-24T19:30:16.616Z,44.28
2022-11-24T19:32:43.265Z,43.85
2022-11-24T19:35:09.897Z,44.75
2022-11-24T19:37:36.617Z,43.06
2022-11-24T19:40:03.985Z,43.57
2022-11-24T19:42:30.637Z,44.94
2022-11-24T19:44:57.333Z,44.87
2022-11-24T19:47:23.967Z,43.89
2022-11-24T19:49:50.594Z,44.59
2022-11-24T19:52:17.241Z,45.46
2022-11-24T19:54:43.893Z,43.66
2022-11-24T19:57:10.574Z,43.71
2022-11-24T19:59:37.470Z,43.41
2022-11-24T20:02:04.250Z,43.45
2022-11-24T20:04:30.992Z,42.98
2022-11-24T20:06:57.671Z,43.19
2022-11-24T20:09:24.450Z,44.01
2022-11-24T20:11:51.067Z,43.20
2022-11-24T20:14:17.678Z,43.10
2022-11-24T20:16:44.419Z,42.39
2022-11-24T20:19:12.220Z,42.13
2022-11-24T20:21:39.023Z,42.94
2022-11-24T20:24:07.639Z,43.23
2022-11-24T20:26:36.116Z,43.92
2022-11-24T20:29:03.021Z,43.10
2022-11-24T20:31:32.212Z,43.25
2022-11-24T20:33:59.718Z,42.97
2022-11-24T20:36:27.170Z,41.88
2022-11-24T20:38:53.943Z,42.34
2022-11-24T20:41:25.715Z,42.32
2022-11-24T20:43:52.662Z,42.00
2022-11-24T20:46:29.851Z,42.60
2022-11-24T20:48:56.580Z,42.25
2022-11-24T20:51:25.121Z,42.81
2022-11-24T20:53:53.033Z,42.09
2022-11-24T20:56:23.697Z,41.97
2022-11-24T20:58:50.439Z,42.64
2022-11-24T21:01:18.838Z,42.14
2022-11-24T21:03:45.909Z,41.96
2022-11-24T21:06:12.943Z,42.55
2022-11-24T21:08:40.880Z,42.51
2022-11-24T21:11:08.428Z,42.23
2022-11-24T21:13:35.556Z,42.60
2022-11-24T21:16:18.605Z,42.65
2022-11-24T21:18:46.082Z,42.36
2022-11-24T21:21:13.005Z,42.63
2022-11-24T21:23:39.809Z,42.79
2022-11-24T21:26:11.486Z,42.63
2022-11-24T21:28:41.944Z,43.05
2022-11-24T21:31:10.257Z,43.00
2022-11-24T21:33:50.192Z,43.26
2022-11-24T21:36:18.624Z,42.94
2022-11-24T21:38:49.847Z,42.98
2022-11-24T21:41:16.514Z,43.07
2022-11-24T21:43:43.179Z,43.14
2022-11-24T21:46:11.447Z,43.18
2022-11-24T21:48:38.363Z,43.11
2022-11-24T21:51:06.503Z,43.05
2022-11-24T21:53:34.802Z,43.50
2022-11-24T21:56:05.563Z,43.69
2022-11-24T21:58:32.273Z,43.39
2022-11-24T22:01:05.844Z,43.41
2022-11-24T22:03:32.527Z,43.10
2022-11-24T22:05:59.758Z,43.36
2022-11-24T22:08:26.991Z,43.56
2022-11-24T22:10:53.617Z,43.44
2022-11-24T22:13:20.288Z,43.08
2022-11-24T22:15:46.920Z,43.32
2022-11-24T22:18:13.534Z,43.47
2022-11-24T22:20:40.138Z,43.58
2022-11-24T22:23:06.863Z,43.48
2022-11-24T22:25:33.576Z,43.23
2022-11-24T22:28:00.203Z,43.00
2022-11-24T22:30:26.819Z,43.01
2022-11-24T22:32:53.463Z,42.88
2022-11-24T22:35:20.096Z,42.95
2022-11-24T22:37:46.702Z,43.47
2022-11-24T22:40:13.329Z,43.33
2022-11-24T22:42:39.930Z,43.08
2022-11-24T22:45:07.208Z,43.27
2022-11-24T22:47:33.811Z,43.29
2022-11-24T22:50:00.417Z,43.26
2022-11-24T22:52:27.036Z,42.96
2022-11-24T22:54:53.665Z,43.44
2022-11-24T22:57:20.292Z,43.32
2022-11-24T22:59:46.912Z,42.74
2022-11-24T23:02:13.513Z,42.96
2022-11-24T23:04:40.133Z,42.98
2022-11-24T23:07:06.794Z,42.91
2022-11-24T23:09:33.421Z,43.24
2022-11-24T23:12:00.022Z,43.23
2022-11-24T23:14:26.630Z,42.62
2022-11-24T23:16:53.776Z,43.04
2022-11-24T23:19:20.393Z,42.67
2022-11-24T23:21:47.011Z,43.15
2022-11-24T23:24:13.610Z,42.75
2022-11-24T23:26:40.493Z,43.14
2022-11-24T23:29:07.809Z,43.09
2022-11-24T23:31:34.562Z,42.89
2022-11-24T23:34:02.192Z,42.62
2022-11-24T23:36:29.255Z,42.91
2022-11-24T23:38:55.865Z,42.95
2022-11-24T23:41:24.093Z,43.06
2022-11-24T23:43:50.821Z,42.53
2022-11-24T23:46:24.167Z,42.78
2022-11-24T23:48:51.228Z,42.78
2022-11-24T23:51:21.742Z,42.47
2022-11-24T23:53:48.439Z,42.96
2022-11-24T23:56:19.443Z,43.02
2022-11-24T23:58:46.077Z,42.41
